createdAt,value
2019-04-01T00:00:31.282Z,1.1
2019-04-01T00:01:31.420Z,0.9
2019-04-01T00:02:31.552Z,1
2019-04-01T00:03:31.675Z,1
2019-04-01T00:04:32.768Z,0.9
2019-04-01T00:05:31.790Z,1
2019-04-01T00:06:31.933Z,1.1
2019-04-01T00:07:32.091Z,1.4
2019-04-01T00:08:32.235Z,0.9
2019-04-01T00:09:32.369Z,1.3
2019-04-01T00:10:32.518Z,0.9
2019-04-01T00:11:32.663Z,0.9
2019-04-01T00:12:32.821Z,0.9
2019-04-01T00:13:32.951Z,0.9
2019-04-01T00:14:33.093Z,0.9
2019-04-01T00:15:33.227Z,1.2
2019-04-01T00:16:33.341Z,1.1
2019-04-01T00:17:33.493Z,0.9
2019-04-01T00:18:33.615Z,1.1
2019-04-01T00:19:33.761Z,1
2019-04-01T00:20:33.929Z,0.8
2019-04-01T00:21:34.007Z,1
2019-04-01T00:22:34.146Z,1
2019-04-01T00:23:34.268Z,0.9
2019-04-01T00:24:34.393Z,0.9
2019-04-01T00:25:34.533Z,1.1
2019-04-01T00:26:34.698Z,0.9
2019-04-01T00:27:34.864Z,0.7
2019-04-01T00:28:35.015Z,0.9
2019-04-01T00:29:35.144Z,0.9
2019-04-01T00:30:35.287Z,0.8
2019-04-01T00:31:35.432Z,0.8
2019-04-01T00:32:35.581Z,1
2019-04-01T00:33:35.769Z,1
2019-04-01T00:34:35.845Z,1.3
2019-04-01T00:35:35.973Z,0.7
2019-04-01T00:36:36.118Z,0.9
2019-04-01T00:37:36.235Z,0.8
2019-04-01T00:38:36.391Z,0.9
2019-04-01T00:39:36.323Z,0.8
2019-04-01T00:40:36.430Z,1
2019-04-01T00:41:36.564Z,0.9
2019-04-01T00:42:36.687Z,0.8
2019-04-01T00:43:36.822Z,0.9
2019-04-01T00:44:40.185Z,0.9
2019-04-01T00:45:38.077Z,1
2019-04-01T00:46:37.095Z,1.1
2019-04-01T00:47:37.242Z,1.1
2019-04-01T00:48:37.369Z,0.8
2019-04-01T00:49:37.491Z,1.1
2019-04-01T00:50:37.615Z,1.2
2019-04-01T00:51:37.755Z,1
2019-04-01T00:52:36.874Z,1.1
2019-04-01T00:53:37.969Z,1.3
2019-04-01T00:54:38.083Z,0.9
2019-04-01T00:55:38.215Z,1.1
2019-04-01T00:56:38.340Z,0.9
2019-04-01T00:57:38.454Z,1
2019-04-01T00:58:38.605Z,0.8
2019-04-01T00:59:38.727Z,0.7
2019-04-01T01:00:38.868Z,1.1
2019-04-01T01:01:38.985Z,1
2019-04-01T01:02:39.114Z,1
2019-04-01T01:03:39.262Z,1
2019-04-01T01:04:39.402Z,1.1
2019-04-01T01:05:39.532Z,0.9
2019-04-01T01:06:39.654Z,1
2019-04-01T01:07:39.778Z,0.8
2019-04-01T01:08:39.930Z,0.8
2019-04-01T01:09:40.088Z,0.8
2019-04-01T01:10:40.213Z,0.8
2019-04-01T01:11:40.304Z,0.8
2019-04-01T01:12:40.442Z,0.7
2019-04-01T01:13:40.578Z,1.2
2019-04-01T01:14:40.735Z,0.9
2019-04-01T01:15:40.869Z,0.9
2019-04-01T01:16:41.005Z,1.1
2019-04-01T01:17:41.139Z,1.3
2019-04-01T01:20:45.414Z,1.3
2019-04-01T01:20:59.160Z,1
2019-04-01T01:21:59.317Z,1.1
2019-04-01T01:22:59.432Z,0.8
2019-04-01T01:23:59.612Z,1
2019-04-01T01:24:59.753Z,0.7
2019-04-01T01:25:59.883Z,1
2019-04-01T01:27:00.035Z,1.2
2019-04-01T01:28:00.170Z,0.9
2019-04-01T01:29:00.274Z,0.8
2019-04-01T01:30:00.487Z,1
2019-04-01T01:31:00.533Z,1
2019-04-01T01:32:00.683Z,0.9
2019-04-01T01:33:00.795Z,0.9
2019-04-01T01:34:00.940Z,1.1
2019-04-01T01:35:01.077Z,1.1
2019-04-01T01:36:01.211Z,1
2019-04-01T01:37:01.351Z,1
2019-04-01T01:38:09.572Z,1.1
2019-04-01T01:39:01.568Z,0.8
2019-04-01T01:40:01.735Z,0.8
2019-04-01T01:41:01.862Z,0.8
2019-04-01T01:42:01.998Z,1.2
2019-04-01T01:43:02.151Z,1.2
2019-04-01T01:44:02.281Z,0.9
2019-04-01T01:45:02.418Z,0.7
2019-04-01T01:46:02.553Z,0.8
2019-04-01T01:47:02.747Z,0.9
2019-04-01T01:48:02.718Z,0.9
2019-04-01T01:49:02.851Z,1.2
2019-04-01T01:50:02.983Z,0.8
2019-04-01T01:51:04.105Z,0.7
2019-04-01T01:52:03.138Z,0.9
2019-04-01T01:53:03.284Z,0.9
2019-04-01T01:54:03.419Z,0.7
2019-04-01T01:55:03.549Z,0.8
2019-04-01T01:56:03.677Z,0.9
2019-04-01T01:57:03.819Z,0.7
2019-04-01T01:58:03.958Z,1
2019-04-01T01:59:04.121Z,0.8
2019-04-01T02:00:04.284Z,0.9
2019-04-01T02:01:04.431Z,0.7
2019-04-01T02:02:04.560Z,1
2019-04-01T02:03:04.695Z,0.9
2019-04-01T02:04:04.836Z,0.9
2019-04-01T02:05:04.995Z,0.9
2019-04-01T02:06:05.137Z,0.9
2019-04-01T02:07:05.287Z,0.7
2019-04-01T02:08:05.460Z,0.8
2019-04-01T02:09:05.601Z,0.7
2019-04-01T02:10:05.788Z,1
2019-04-01T02:11:05.925Z,0.9
2019-04-01T02:12:06.049Z,0.9
2019-04-01T02:13:06.170Z,1.3
2019-04-01T02:14:06.305Z,0.8
2019-04-01T02:15:06.440Z,1.1
2019-04-01T02:16:06.587Z,0.9
2019-04-01T02:17:06.765Z,0.7
2019-04-01T02:18:06.899Z,0.9
2019-04-01T02:19:07.024Z,0.8
2019-04-01T02:20:07.175Z,0.7
2019-04-01T02:21:07.349Z,0.7
2019-04-01T02:22:07.480Z,0.8
2019-04-01T02:23:07.621Z,0.8
2019-04-01T02:24:07.762Z,1.1
2019-04-01T02:25:08.894Z,0.9
2019-04-01T02:26:07.937Z,0.9
2019-04-01T02:27:08.069Z,0.9
2019-04-01T02:28:08.214Z,1
2019-04-01T02:29:08.366Z,0.8
2019-04-01T02:30:08.524Z,1
2019-04-01T02:31:08.674Z,0.9
2019-04-01T02:32:08.804Z,1.2
2019-04-01T02:33:08.996Z,1
2019-04-01T02:34:08.955Z,0.6
2019-04-01T02:35:09.102Z,0.6
2019-04-01T02:36:09.242Z,0.9
2019-04-01T02:37:09.403Z,0.8
2019-04-01T02:38:09.688Z,0.8
2019-04-01T02:39:09.659Z,1
2019-04-01T02:40:09.826Z,0.7
2019-04-01T02:41:10.105Z,0.8
2019-04-01T02:42:10.042Z,0.7
2019-04-01T02:43:10.180Z,0.8
2019-04-01T02:44:10.339Z,1.1
2019-04-01T02:45:10.678Z,0.7
2019-04-01T02:46:10.495Z,0.9
2019-04-01T02:47:10.649Z,0.8
2019-04-01T02:48:10.795Z,0.9
2019-04-01T02:49:10.929Z,0.9
2019-04-01T02:50:11.045Z,1
2019-04-01T02:51:11.175Z,0.6
2019-04-01T02:52:11.313Z,0.9
2019-04-01T02:53:11.431Z,0.9
2019-04-01T02:54:11.530Z,0.8
2019-04-01T02:55:11.692Z,0.7
2019-04-01T02:56:11.843Z,0.8
2019-04-01T02:57:11.991Z,0.9
2019-04-01T02:58:12.108Z,0.8
2019-04-01T02:59:12.276Z,0.7
2019-04-01T03:00:12.443Z,0.7
2019-04-01T03:01:12.583Z,1
2019-04-01T03:02:12.670Z,0.8
2019-04-01T03:03:12.818Z,0.9
2019-04-01T03:04:12.969Z,0.8
2019-04-01T03:05:13.153Z,0.8
2019-04-01T03:06:14.277Z,0.7
2019-04-01T03:07:13.312Z,0.9
2019-04-01T03:08:13.473Z,1
2019-04-01T03:09:13.605Z,1.1
2019-04-01T03:10:13.744Z,0.7
2019-04-01T03:11:13.857Z,0.9
2019-04-01T03:12:14.006Z,0.7
2019-04-01T03:13:14.156Z,0.9
2019-04-01T03:14:14.270Z,0.7
2019-04-01T03:15:14.402Z,0.9
2019-04-01T03:16:14.555Z,0.8
2019-04-01T03:17:14.734Z,0.9
2019-04-01T03:18:14.712Z,0.7
2019-04-01T03:19:14.839Z,0.7
2019-04-01T03:20:14.997Z,0.9
2019-04-01T03:21:15.140Z,0.8
2019-04-01T03:22:15.269Z,1.1
2019-04-01T03:23:15.401Z,0.8
2019-04-01T03:24:15.551Z,0.8
2019-04-01T03:25:15.706Z,0.9
2019-04-01T03:26:15.838Z,0.9
2019-04-01T03:27:17.367Z,1
2019-04-01T03:28:17.098Z,1
2019-04-01T03:29:16.155Z,1
2019-04-01T03:30:16.276Z,0.8
2019-04-01T03:31:16.393Z,0.8
2019-04-01T03:32:16.557Z,0.7
2019-04-01T03:33:16.699Z,0.9
2019-04-01T03:34:16.871Z,0.7
2019-04-01T03:35:17.007Z,0.9
2019-04-01T03:36:17.154Z,0.8
2019-04-01T03:37:17.335Z,0.7
2019-04-01T03:38:17.291Z,0.8
2019-04-01T03:39:17.424Z,0.7
2019-04-01T03:40:17.565Z,0.8
2019-04-01T03:41:17.727Z,1
2019-04-01T03:42:17.862Z,0.8
2019-04-01T03:43:18.017Z,0.8
2019-04-01T03:44:18.197Z,0.9
2019-04-01T03:45:18.327Z,0.9
2019-04-01T03:46:18.476Z,0.7
2019-04-01T03:47:18.614Z,0.9
2019-04-01T03:48:18.788Z,0.8
2019-04-01T03:49:18.731Z,0.7
2019-04-01T03:50:18.950Z,0.9
2019-04-01T03:51:18.897Z,0.8
2019-04-01T03:52:19.014Z,0.9
2019-04-01T03:53:19.197Z,1
2019-04-01T03:54:19.168Z,0.8
2019-04-01T03:55:19.314Z,0.8
2019-04-01T03:56:19.451Z,0.8
2019-04-01T03:57:19.632Z,0.7
2019-04-01T03:58:19.745Z,0.8
2019-04-01T03:59:20.614Z,0.8
2019-04-01T04:00:19.998Z,0.7
2019-04-01T04:01:20.127Z,0.7
2019-04-01T04:02:20.259Z,0.8
2019-04-01T04:03:20.413Z,0.7
2019-04-01T04:04:20.545Z,0.7
2019-04-01T04:05:20.707Z,0.8
2019-04-01T04:06:20.852Z,0.6
2019-04-01T04:07:20.999Z,0.7
2019-04-01T04:08:21.137Z,0.6
2019-04-01T04:09:21.269Z,0.8
2019-04-01T04:10:21.438Z,0.7
2019-04-01T04:11:21.570Z,0.8
2019-04-01T04:12:21.699Z,0.6
2019-04-01T04:13:21.839Z,0.9
2019-04-01T04:14:22.000Z,0.7
2019-04-01T04:15:22.148Z,0.7
2019-04-01T04:16:22.288Z,0.9
2019-04-01T04:17:22.440Z,0.9
2019-04-01T04:18:22.563Z,0.5
2019-04-01T04:19:22.704Z,0.7
2019-04-01T04:20:22.849Z,0.9
2019-04-01T04:21:24.005Z,0.6
2019-04-01T04:22:24.105Z,0.6
2019-04-01T04:23:23.144Z,0.8
2019-04-01T04:24:23.300Z,0.8
2019-04-01T04:25:23.465Z,0.7
2019-04-01T04:26:23.414Z,0.9
2019-04-01T04:27:23.555Z,0.7
2019-04-01T04:28:23.726Z,0.7
2019-04-01T04:29:23.703Z,0.9
2019-04-01T04:30:24.036Z,0.7
2019-04-01T04:31:23.994Z,0.7
2019-04-01T04:32:25.124Z,0.6
2019-04-01T04:33:24.180Z,0.6
2019-04-01T04:34:24.318Z,0.9
2019-04-01T04:35:24.463Z,0.6
2019-04-01T04:36:24.615Z,0.8
2019-04-01T04:37:24.788Z,0.8
2019-04-01T04:38:24.918Z,0.7
2019-04-01T04:39:25.046Z,0.9
2019-04-01T04:40:25.176Z,0.8
2019-04-01T04:41:25.363Z,1
2019-04-01T04:42:25.328Z,0.7
2019-04-01T04:43:25.497Z,0.7
2019-04-01T04:44:25.484Z,0.6
2019-04-01T04:45:25.606Z,0.6
2019-04-01T04:46:25.757Z,0.7
2019-04-01T04:47:25.892Z,0.8
2019-04-01T04:48:26.059Z,0.8
2019-04-01T04:49:26.236Z,0.8
2019-04-01T04:50:26.354Z,0.7
2019-04-01T04:51:26.494Z,0.7
2019-04-01T04:52:26.601Z,0.6
2019-04-01T04:53:26.737Z,0.7
2019-04-01T04:54:26.874Z,0.7
2019-04-01T04:55:27.028Z,0.9
2019-04-01T04:56:27.187Z,0.8
2019-04-01T04:57:27.170Z,0.8
2019-04-01T04:58:27.353Z,0.8
2019-04-01T04:59:27.362Z,0.7
2019-04-01T05:00:27.366Z,0.9
2019-04-01T05:01:27.387Z,0.7
2019-04-01T05:02:27.397Z,0.8
2019-04-01T05:03:27.394Z,0.7
2019-04-01T05:04:27.382Z,0.7
2019-04-01T05:05:27.387Z,0.6
2019-04-01T05:06:27.383Z,0.7
2019-04-01T05:07:27.392Z,0.9
2019-04-01T05:08:27.383Z,0.8
2019-04-01T05:09:27.580Z,0.8
2019-04-01T05:10:27.592Z,0.7
2019-04-01T05:11:27.617Z,0.6
2019-04-01T05:12:27.611Z,0.7
2019-04-01T05:13:27.614Z,0.7
2019-04-01T05:14:27.600Z,0.6
2019-04-01T05:15:28.780Z,0.9
2019-04-01T05:16:27.840Z,0.7
2019-04-01T05:17:28.027Z,0.7
2019-04-01T05:18:28.069Z,0.7
2019-04-01T05:19:28.059Z,0.6
2019-04-01T05:20:28.079Z,0.6
2019-04-01T05:21:28.074Z,1
2019-04-01T05:22:28.069Z,0.6
2019-04-01T05:23:28.127Z,1.2
2019-04-01T05:24:28.124Z,0.8
2019-04-01T05:25:28.185Z,0.7
2019-04-01T05:26:29.161Z,0.7
2019-04-01T05:27:28.245Z,0.7
2019-04-01T05:28:28.248Z,0.7
2019-04-01T05:29:28.250Z,0.8
2019-04-01T05:30:28.258Z,0.7
2019-04-01T05:31:28.273Z,0.8
2019-04-01T05:32:28.268Z,0.6
2019-04-01T05:33:28.269Z,0.6
2019-04-01T05:34:28.308Z,0.7
2019-04-01T05:35:28.388Z,0.6
2019-04-01T05:36:28.448Z,0.8
2019-04-01T05:37:28.529Z,0.7
2019-04-01T05:38:28.583Z,0.7
2019-04-01T05:39:28.653Z,0.8
2019-04-01T05:40:28.735Z,0.8
2019-04-01T05:41:28.822Z,0.9
2019-04-01T05:42:28.876Z,0.6
2019-04-01T05:43:28.917Z,0.7
2019-04-01T05:44:29.967Z,0.6
2019-04-01T05:45:29.081Z,0.6
2019-04-01T05:46:29.139Z,0.7
2019-04-01T05:47:29.213Z,0.7
2019-04-01T05:48:29.277Z,0.7
2019-04-01T05:49:29.413Z,0.8
2019-04-01T05:50:29.590Z,0.7
2019-04-01T05:51:29.740Z,0.8
2019-04-01T05:52:29.879Z,0.7
2019-04-01T05:53:30.015Z,1.1
2019-04-01T05:54:30.147Z,0.6
2019-04-01T05:55:30.301Z,0.5
2019-04-01T05:56:30.442Z,0.5
2019-04-01T05:57:30.632Z,1.1
2019-04-01T05:58:30.599Z,0.7
2019-04-01T05:59:30.723Z,0.6
2019-04-01T06:00:30.848Z,0.6
2019-04-01T06:01:30.967Z,0.6
2019-04-01T06:02:31.133Z,0.7
2019-04-01T06:03:31.273Z,0.8
2019-04-01T06:04:31.340Z,0.8
2019-04-01T06:05:31.424Z,0.7
2019-04-01T06:06:31.470Z,0.9
2019-04-01T06:07:31.494Z,0.9
2019-04-01T06:08:31.571Z,0.6
2019-04-01T06:09:31.646Z,0.8
2019-04-01T06:10:31.735Z,0.8
2019-04-01T06:11:31.800Z,0.8
2019-04-01T06:12:31.837Z,0.8
2019-04-01T06:13:31.940Z,0.7
2019-04-01T06:14:31.992Z,0.7
2019-04-01T06:15:32.035Z,0.6
2019-04-01T06:16:32.092Z,0.9
2019-04-01T06:17:32.158Z,0.7
2019-04-01T06:18:32.228Z,0.6
2019-04-01T06:19:32.277Z,0.8
2019-04-01T06:20:32.365Z,0.8
2019-04-01T06:21:32.418Z,0.8
2019-04-01T06:22:32.485Z,0.6
2019-04-01T06:23:32.570Z,0.7
2019-04-01T06:24:32.687Z,0.6
2019-04-01T06:25:32.822Z,0.8
2019-04-01T06:26:32.974Z,0.7
2019-04-01T06:27:33.333Z,0.7
2019-04-01T06:28:33.218Z,1
2019-04-01T06:29:33.370Z,0.7
2019-04-01T06:30:33.506Z,0.8
2019-04-01T06:31:33.636Z,0.8
2019-04-01T06:32:33.778Z,0.5
2019-04-01T06:33:33.917Z,0.7
2019-04-01T06:34:34.101Z,0.8
2019-04-01T06:35:34.213Z,0.8
2019-04-01T06:36:34.328Z,0.7
2019-04-01T06:37:34.472Z,0.7
2019-04-01T06:38:34.580Z,0.8
2019-04-01T06:39:34.717Z,0.8
2019-04-01T06:40:34.840Z,0.6
2019-04-01T06:41:34.964Z,0.7
2019-04-01T06:42:34.118Z,0.8
2019-04-01T06:43:35.158Z,0.6
2019-04-01T06:44:35.330Z,0.7
2019-04-01T06:45:35.819Z,1.1
2019-04-01T06:46:35.748Z,0.7
2019-04-01T06:47:35.751Z,1
2019-04-01T06:48:35.826Z,0.9
2019-04-01T06:49:35.905Z,0.7
2019-04-01T06:50:36.160Z,0.9
2019-04-01T06:51:36.202Z,1
2019-04-01T06:52:36.229Z,0.9
2019-04-01T06:53:36.070Z,0.9
2019-04-01T06:54:36.127Z,0.7
2019-04-01T06:55:36.422Z,0.6
2019-04-01T06:56:36.580Z,0.6
2019-04-01T06:57:36.456Z,0.9
2019-04-01T06:58:36.542Z,0.8
2019-04-01T06:59:36.588Z,0.8
2019-04-01T07:00:36.668Z,0.7
2019-04-01T07:01:35.794Z,1.1
2019-04-01T07:02:36.808Z,1.2
2019-04-01T07:03:36.886Z,0.9
2019-04-01T07:04:36.952Z,1.1
2019-04-01T07:05:37.011Z,0.9
2019-04-01T07:06:37.081Z,1.1
2019-04-01T07:07:37.113Z,1
2019-04-01T07:08:37.159Z,1.2
2019-04-01T07:09:37.230Z,0.9
2019-04-01T07:10:37.608Z,0.9
2019-04-01T07:11:37.381Z,1.2
2019-04-01T07:12:37.389Z,1.5
2019-04-01T07:13:39.941Z,1.8
2019-04-01T07:14:38.657Z,1.4
2019-04-01T07:15:37.717Z,1.7
2019-04-01T07:16:39.974Z,1.7
2019-04-01T07:17:38.960Z,2.1
2019-04-01T07:18:37.944Z,1.6
2019-04-01T07:19:38.083Z,2.2
2019-04-01T07:20:38.258Z,1.7
2019-04-01T07:21:38.334Z,2
2019-04-01T07:22:38.412Z,1.4
2019-04-01T07:23:38.473Z,1.5
2019-04-01T07:24:38.603Z,1.7
2019-04-01T07:25:38.747Z,1.2
2019-04-01T07:26:38.720Z,1.7
2019-04-01T07:27:38.823Z,1.7
2019-04-01T07:28:38.859Z,1.7
2019-04-01T07:29:39.094Z,1.2
2019-04-01T07:30:41.740Z,1.9
2019-04-01T07:31:40.037Z,1.8
2019-04-01T07:32:40.111Z,1.7
2019-04-01T07:33:39.209Z,1.7
2019-04-01T07:34:39.238Z,1.1
2019-04-01T07:35:39.218Z,1.5
2019-04-01T07:36:39.223Z,1.9
2019-04-01T07:37:39.230Z,1.5
2019-04-01T07:38:47.445Z,1.8
2019-04-01T07:39:39.434Z,1.3
2019-04-01T07:40:39.559Z,1.5
2019-04-01T07:41:39.700Z,1.4
2019-04-01T07:42:39.700Z,1.5
2019-04-01T07:43:39.842Z,1.8
2019-04-01T07:44:39.970Z,1.6
2019-04-01T07:45:40.097Z,1.4
2019-04-01T07:46:40.253Z,2.5
2019-04-01T07:47:40.393Z,1.6
2019-04-01T07:48:40.486Z,1.1
2019-04-01T07:49:40.615Z,1.5
2019-04-01T07:50:40.858Z,1.8
2019-04-01T07:51:40.863Z,1.9
2019-04-01T07:52:41.016Z,1.8
2019-04-01T07:53:41.147Z,1.5
2019-04-01T07:54:41.277Z,1.3
2019-04-01T07:55:41.426Z,1.2
2019-04-01T07:56:41.586Z,1.5
2019-04-01T07:57:41.689Z,1.4
2019-04-01T07:58:41.822Z,1.4
2019-04-01T07:59:41.920Z,1.7
2019-04-01T08:00:43.069Z,1.4
2019-04-01T08:01:42.047Z,1.3
2019-04-01T08:02:42.169Z,1.6
2019-04-01T08:03:42.277Z,1.5
2019-04-01T08:04:42.399Z,1.1
2019-04-01T08:05:42.574Z,1.7
2019-04-01T08:06:42.710Z,1.4
2019-04-01T08:07:42.839Z,1.4
2019-04-01T08:08:46.096Z,1.2
2019-04-01T08:09:44.096Z,1.3
2019-04-01T08:10:43.133Z,1.2
2019-04-01T08:11:43.280Z,1.6
2019-04-01T08:12:43.438Z,1.1
2019-04-01T08:13:43.572Z,1.1
2019-04-01T08:14:43.668Z,1.6
2019-04-01T08:15:43.815Z,1.3
2019-04-01T08:16:43.962Z,1.3
2019-04-01T08:17:44.091Z,1.3
2019-04-01T08:18:44.226Z,1.1
2019-04-01T08:19:44.358Z,1.2
2019-04-01T08:20:44.523Z,1.4
2019-04-01T08:21:44.619Z,1.4
2019-04-01T08:22:44.785Z,1.7
2019-04-01T08:23:44.955Z,1.1
2019-04-01T08:24:45.084Z,1.4
2019-04-01T08:25:47.869Z,1.6
2019-04-01T08:26:46.309Z,1.4
2019-04-01T08:27:45.337Z,1.3
2019-04-01T08:28:45.481Z,1.3
2019-04-01T08:29:45.620Z,1.4
2019-04-01T08:30:45.756Z,1.3
2019-04-01T08:31:45.867Z,1.1
2019-04-01T08:32:45.981Z,1.1
2019-04-01T08:33:46.133Z,1.3
2019-04-01T08:34:46.259Z,1.5
2019-04-01T08:35:46.390Z,1.1
2019-04-01T08:36:46.530Z,1.3
2019-04-01T08:37:46.657Z,1.3
2019-04-01T08:38:46.797Z,1.3
2019-04-01T08:39:46.922Z,1.2
2019-04-01T08:40:47.041Z,1.5
2019-04-01T08:41:47.217Z,1.3
2019-04-01T08:42:48.894Z,1.2
2019-04-01T08:43:48.455Z,1.3
2019-04-01T08:44:47.443Z,1.1
2019-04-01T08:45:47.596Z,1.5
2019-04-01T08:46:47.737Z,1.1
2019-04-01T08:47:47.873Z,1
2019-04-01T08:48:47.996Z,1.1
2019-04-01T08:49:48.120Z,1.4
2019-04-01T08:50:48.274Z,1.3
2019-04-01T08:51:48.403Z,1.2
2019-04-01T08:52:48.510Z,1.1
2019-04-01T08:53:48.660Z,1.1
2019-04-01T08:54:51.982Z,1.1
2019-04-01T08:55:49.931Z,1.3
2019-04-01T08:56:48.844Z,1.2
2019-04-01T08:57:48.974Z,1.1
2019-04-01T08:58:49.114Z,1.1
2019-04-01T08:59:49.247Z,1.3
2019-04-01T09:00:49.380Z,1.5
2019-04-01T09:01:49.494Z,1.2
2019-04-01T09:02:49.695Z,1.5
2019-04-01T09:03:49.780Z,1
2019-04-01T09:04:49.893Z,1
2019-04-01T09:05:50.068Z,1.1
2019-04-01T09:06:50.150Z,1.1
2019-04-01T09:07:50.252Z,1.6
2019-04-01T09:08:50.428Z,1
2019-04-01T09:09:50.556Z,1.3
2019-04-01T09:10:50.685Z,1.1
2019-04-01T09:11:50.796Z,1.2
2019-04-01T09:12:50.915Z,0.9
2019-04-01T09:13:51.067Z,0.8
2019-04-01T09:14:51.176Z,1
2019-04-01T09:15:51.301Z,1
2019-04-01T09:16:51.434Z,1.4
2019-04-01T09:17:52.536Z,0.8
2019-04-01T09:18:51.565Z,1.2
2019-04-01T09:19:51.663Z,0.9
2019-04-01T09:20:51.794Z,1.1
2019-04-01T09:21:51.882Z,1.1
2019-04-01T09:22:52.000Z,0.7
2019-04-01T09:23:52.459Z,1.2
2019-04-01T09:24:52.219Z,1.1
2019-04-01T09:25:52.338Z,1.2
2019-04-01T09:26:52.445Z,1.3
2019-04-01T09:27:52.568Z,0.9
2019-04-01T09:28:52.674Z,0.8
2019-04-01T09:29:52.761Z,1
2019-04-01T09:30:52.880Z,1
2019-04-01T09:31:52.976Z,1.1
2019-04-01T09:32:53.094Z,1.1
2019-04-01T09:33:53.206Z,0.9
2019-04-01T09:34:53.309Z,1.1
2019-04-01T09:35:53.430Z,0.9
2019-04-01T09:36:53.507Z,1.2
2019-04-01T09:37:53.599Z,1.1
2019-04-01T09:38:53.692Z,0.8
2019-04-01T09:39:53.806Z,1
2019-04-01T09:40:53.910Z,0.9
2019-04-01T09:41:54.005Z,1
2019-04-01T09:42:54.105Z,1
2019-04-01T09:43:54.221Z,0.8
2019-04-01T09:44:54.342Z,0.9
2019-04-01T09:45:54.484Z,0.9
2019-04-01T09:46:54.571Z,1.1
2019-04-01T09:47:54.650Z,1.2
2019-04-01T09:48:54.758Z,1
2019-04-01T09:49:54.893Z,1
2019-04-01T09:50:55.961Z,1.2
2019-04-01T09:51:55.157Z,0.9
2019-04-01T09:52:55.267Z,1.1
2019-04-01T09:53:55.365Z,1
2019-04-01T09:54:55.491Z,1.1
2019-04-01T09:55:55.591Z,0.9
2019-04-01T09:56:55.731Z,0.8
2019-04-01T09:57:55.911Z,1.1
2019-04-01T09:58:56.027Z,1.3
2019-04-01T09:59:56.131Z,1.3
2019-04-01T10:00:56.241Z,0.9
2019-04-01T10:01:56.330Z,1.1
2019-04-01T10:02:56.465Z,1
2019-04-01T10:03:56.543Z,1
2019-04-01T10:04:56.645Z,0.8
2019-04-01T10:05:56.777Z,0.8
2019-04-01T10:06:56.877Z,1
2019-04-01T10:07:56.960Z,0.7
2019-04-01T10:08:57.053Z,1
2019-04-01T10:09:57.184Z,1
2019-04-01T10:10:57.257Z,1
2019-04-01T10:11:57.343Z,1
2019-04-01T10:12:57.413Z,0.9
2019-04-01T10:13:57.547Z,0.8
2019-04-01T10:14:57.637Z,1
2019-04-01T10:15:57.740Z,0.9
2019-04-01T10:16:57.819Z,0.7
2019-04-01T10:17:57.866Z,1.3
2019-04-01T10:18:57.925Z,1.1
2019-04-01T10:20:00.681Z,0.7
2019-04-01T10:20:59.007Z,1.1
2019-04-01T10:21:58.121Z,1.1
2019-04-01T10:22:58.154Z,1
2019-04-01T10:23:58.220Z,0.9
2019-04-01T10:24:58.272Z,0.9
2019-04-01T10:25:58.290Z,1.3
2019-04-01T10:26:58.331Z,0.8
2019-04-01T10:27:58.342Z,1
2019-04-01T10:28:58.370Z,0.9
2019-04-01T10:29:58.401Z,1
2019-04-01T10:30:58.438Z,0.8
2019-04-01T10:31:58.449Z,1.1
2019-04-01T10:33:01.857Z,1.1
2019-04-01T10:33:59.487Z,1.1
2019-04-01T10:34:58.610Z,0.7
2019-04-01T10:35:58.639Z,1.3
2019-04-01T10:36:58.734Z,0.9
2019-04-01T10:37:58.738Z,1
2019-04-01T10:38:58.757Z,1
2019-04-01T10:40:00.271Z,1.1
2019-04-01T10:40:59.808Z,1.1
2019-04-01T10:41:58.921Z,0.8
2019-04-01T10:42:58.923Z,0.9
2019-04-01T10:43:58.972Z,0.8
2019-04-01T10:44:59.007Z,0.8
2019-04-01T10:45:59.062Z,1.1
2019-04-01T10:46:59.120Z,1
2019-04-01T10:47:59.190Z,1
2019-04-01T10:48:59.194Z,1.1
2019-04-01T10:49:59.260Z,0.9
2019-04-01T10:50:59.314Z,1.1
2019-04-01T10:51:59.335Z,1.1
2019-04-01T10:52:59.380Z,0.8
2019-04-01T10:53:59.436Z,1
2019-04-01T10:54:59.438Z,0.9
2019-04-01T10:55:59.522Z,0.9
2019-04-01T10:56:59.616Z,1.3
2019-04-01T10:57:59.668Z,0.7
2019-04-01T10:58:59.675Z,1
2019-04-01T10:59:59.765Z,1
2019-04-01T11:00:59.757Z,0.9
2019-04-01T11:01:59.735Z,0.8
2019-04-01T11:02:59.829Z,0.9
2019-04-01T11:03:59.893Z,1.1
2019-04-01T11:04:59.873Z,1.1
2019-04-01T11:05:59.999Z,1
2019-04-01T11:07:00.007Z,0.7
2019-04-01T11:08:00.008Z,1
2019-04-01T11:09:00.065Z,1
2019-04-01T11:10:00.103Z,1.1
2019-04-01T11:11:00.124Z,1.2
2019-04-01T11:12:00.136Z,1
2019-04-01T11:13:00.156Z,0.8
2019-04-01T11:14:00.160Z,1
2019-04-01T11:15:00.426Z,0.6
2019-04-01T11:16:00.223Z,0.6
2019-04-01T11:17:04.015Z,0.7
2019-04-01T11:18:01.283Z,0.9
2019-04-01T11:19:00.362Z,1
2019-04-01T11:20:00.553Z,1.3
2019-04-01T11:21:00.450Z,1.3
2019-04-01T11:22:00.507Z,1.6
2019-04-01T11:23:02.497Z,1.8
2019-04-01T11:24:02.123Z,1.7
2019-04-01T11:25:00.701Z,1.6
2019-04-01T11:26:00.732Z,1.7
2019-04-01T11:27:00.872Z,2
2019-04-01T11:28:00.996Z,2.5
2019-04-01T11:29:01.025Z,3
2019-04-01T11:30:01.051Z,3
2019-04-01T11:31:01.196Z,2.8
2019-04-01T11:32:01.332Z,2.9
2019-04-01T11:33:01.519Z,2.9
2019-04-01T11:34:01.519Z,3
2019-04-01T11:35:01.699Z,3.4
2019-04-01T11:36:01.829Z,3.2
2019-04-01T11:37:02.099Z,3.6
2019-04-01T11:38:02.084Z,2.6
2019-04-01T11:39:02.004Z,3.6
2019-04-01T11:40:02.187Z,3
2019-04-01T11:41:02.235Z,3
2019-04-01T11:42:02.160Z,3.5
2019-04-01T11:43:04.879Z,3.2
2019-04-01T11:44:03.499Z,3
2019-04-01T11:45:05.585Z,3.3
2019-04-01T11:46:03.632Z,3.1
2019-04-01T11:47:02.697Z,3.2
2019-04-01T11:48:02.851Z,3.3
2019-04-01T11:49:02.975Z,3.7
2019-04-01T11:50:03.205Z,3.6
2019-04-01T11:51:03.214Z,3.7
2019-04-01T11:52:03.162Z,3.3
2019-04-01T11:53:03.316Z,2.9
2019-04-01T11:54:03.431Z,3.2
2019-04-01T11:55:06.379Z,3.8
2019-04-01T11:56:04.741Z,3.3
2019-04-01T11:57:03.758Z,3.3
2019-04-01T11:58:03.783Z,4
2019-04-01T11:59:03.837Z,3.7
2019-04-01T12:00:03.837Z,3.8
2019-04-01T12:01:03.852Z,3.5
2019-04-01T12:02:03.988Z,3.6
2019-04-01T12:03:03.983Z,3.6
2019-04-01T12:04:04.170Z,3.2
2019-04-01T12:05:04.157Z,4.2
2019-04-01T12:06:04.294Z,3.1
2019-04-01T12:07:04.348Z,3.7
2019-04-01T12:08:04.504Z,3.7
2019-04-01T12:09:04.627Z,3.5
2019-04-01T12:10:07.269Z,3.5
2019-04-01T12:11:05.682Z,3.7
2019-04-01T12:12:04.796Z,3.7
2019-04-01T12:13:04.865Z,3.9
2019-04-01T12:14:05.427Z,3.6
2019-04-01T12:15:04.140Z,3.8
2019-04-01T12:16:05.929Z,3.5
2019-04-01T12:17:06.235Z,3.7
2019-04-01T12:18:05.279Z,3.6
2019-04-01T12:19:05.350Z,3.4
2019-04-01T12:20:05.500Z,3.9
2019-04-01T12:21:05.551Z,3.1
2019-04-01T12:22:05.677Z,3.4
2019-04-01T12:23:05.835Z,3.4
2019-04-01T12:24:05.885Z,3.6
2019-04-01T12:25:06.005Z,3.2
2019-04-01T12:26:14.719Z,3.3
2019-04-01T12:27:07.169Z,3.5
2019-04-01T12:28:06.339Z,4.1
2019-04-01T12:29:06.417Z,3.7
2019-04-01T12:30:06.574Z,3.7
2019-04-01T12:31:06.603Z,3.1
2019-04-01T12:32:06.756Z,3.7
2019-04-01T12:33:06.818Z,3.5
2019-04-01T12:34:06.903Z,4.1
2019-04-01T12:35:06.891Z,3.5
2019-04-01T12:36:06.928Z,3.7
2019-04-01T12:37:07.034Z,3.7
2019-04-01T12:38:07.127Z,3.7
2019-04-01T12:39:07.262Z,3.4
2019-04-01T12:40:07.463Z,3.3
2019-04-01T12:41:07.509Z,3.8
2019-04-01T12:42:07.638Z,3.6
2019-04-01T12:43:07.810Z,3.8
2019-04-01T12:44:07.968Z,3.9
2019-04-01T12:45:08.151Z,3.5
2019-04-01T12:46:08.771Z,3.3
2019-04-01T12:47:09.461Z,3.8
2019-04-01T12:48:08.507Z,3.3
2019-04-01T12:49:08.635Z,3.9
2019-04-01T12:50:08.792Z,3.9
2019-04-01T12:51:08.944Z,4
2019-04-01T12:52:09.074Z,3.4
2019-04-01T12:53:09.185Z,3.6
2019-04-01T12:54:09.323Z,3.3
2019-04-01T12:55:09.323Z,3.8
2019-04-01T12:56:09.469Z,3.8
2019-04-01T12:57:09.736Z,3.5
2019-04-01T12:58:09.817Z,3.5
2019-04-01T12:59:09.811Z,3.5
2019-04-01T13:00:09.980Z,3.3
2019-04-01T13:01:10.933Z,3.3
2019-04-01T13:02:11.105Z,2.9
2019-04-01T13:03:10.116Z,3.1
2019-04-01T13:04:10.103Z,3.9
2019-04-01T13:05:10.155Z,3.4
2019-04-01T13:06:10.361Z,3.8
2019-04-01T13:07:10.387Z,3.5
2019-04-01T13:08:10.526Z,3.5
2019-04-01T13:09:10.710Z,3.7
2019-04-01T13:10:10.681Z,3.5
2019-04-01T13:11:10.715Z,3.8
2019-04-01T13:12:10.731Z,3.5
2019-04-01T13:13:12.934Z,4.1
2019-04-01T13:14:12.318Z,3.2
2019-04-01T13:15:12.965Z,3.7
2019-04-01T13:16:12.139Z,3.5
2019-04-01T13:17:11.252Z,3.4
2019-04-01T13:18:11.231Z,3.3
2019-04-01T13:19:11.262Z,3.5
2019-04-01T13:20:11.258Z,2.9
2019-04-01T13:21:11.472Z,3.4
2019-04-01T13:22:11.557Z,3.2
2019-04-01T13:23:11.496Z,3.5
2019-04-01T13:24:11.671Z,3.3
2019-04-01T13:25:11.833Z,3.3
2019-04-01T13:26:11.847Z,3.3
2019-04-01T13:27:11.856Z,3.3
2019-04-01T13:28:12.006Z,3.1
2019-04-01T13:29:12.167Z,3.2
2019-04-01T13:30:12.338Z,2.7
2019-04-01T13:31:12.454Z,3
2019-04-01T13:32:12.582Z,3
2019-04-01T13:33:12.676Z,3.1
2019-04-01T13:34:12.858Z,3.2
2019-04-01T13:35:12.881Z,3
2019-04-01T13:36:13.007Z,2.9
2019-04-01T13:37:13.141Z,3
2019-04-01T13:38:14.951Z,2.6
2019-04-01T13:39:40.288Z,2.9
2019-04-01T13:40:13.333Z,2.7
2019-04-01T13:41:13.828Z,2.7
2019-04-01T13:42:14.866Z,3.2
2019-04-01T13:43:16.780Z,2.8
2019-04-01T13:44:14.789Z,2.8
2019-04-01T13:45:13.799Z,3
2019-04-01T13:46:13.807Z,3.6
2019-04-01T13:47:14.990Z,3.1
2019-04-01T13:48:14.054Z,3.8
2019-04-01T13:49:14.182Z,3.5
2019-04-01T13:50:16.276Z,3.9
2019-04-01T13:51:15.520Z,3.8
2019-04-01T13:52:14.625Z,3.6
2019-04-01T13:53:14.629Z,3.4
2019-04-01T13:54:14.583Z,3.7
2019-04-01T13:55:14.751Z,3.5